sensor_id;sensor_type;location;lat;lon;timestamp;pressure;altitude;pressure_sealevel;temperature;humidity
12775;BME280;6451;42.630;23.382;2023-12-20T00:01:23;94743.16;;;2.71;100.00
12775;BME280;6451;42.630;23.382;2023-12-20T00:03:50;94744.88;;;2.62;100.00
12775;BME280;6451;42.630;23.382;2023-12-20T00:06:17;94738.00;;;2.56;100.00
12775;BME280;6451;42.630;23.382;2023-12-20T00:08:44;94730.97;;;2.60;100.00
12775;BME280;6451;42.630;23.382;2023-12-20T00:11:11;94724.00;;;2.59;100.00
12775;BME280;6451;42.630;23.382;2023-12-20T00:13:38;94735.59;;;2.55;100.00
12775;BME280;6451;42.630;23.382;2023-12-20T00:16:06;94728.38;;;2.55;100.00
12775;BME280;6451;42.630;23.382;2023-12-20T00:18:33;94720.16;;;2.46;100.00
12775;BME280;6451;42.630;23.382;2023-12-20T00:21:00;94694.41;;;2.27;100.00
12775;BME280;6451;42.630;23.382;2023-12-20T00:23:28;94733.47;;;2.51;100.00
12775;BME280;6451;42.630;23.382;2023-12-20T00:25:54;94714.22;;;2.26;100.00
12775;BME280;6451;42.630;23.382;2023-12-20T00:28:21;94706.81;;;2.17;100.00
12775;BME280;6451;42.630;23.382;2023-12-20T00:30:48;94669.25;;;1.99;100.00
12775;BME280;6451;42.630;23.382;2023-12-20T00:33:16;94711.25;;;2.27;100.00
12775;BME280;6451;42.630;23.382;2023-12-20T00:35:44;94673.50;;;2.05;100.00
12775;BME280;6451;42.630;23.382;2023-12-20T00:38:11;94611.13;;;1.56;100.00
12775;BME280;6451;42.630;23.382;2023-12-20T00:40:38;94704.59;;;2.25;100.00
12775;BME280;6451;42.630;23.382;2023-12-20T00:43:05;94678.22;;;2.13;100.00
12775;BME280;6451;42.630;23.382;2023-12-20T00:45:31;94685.69;;;2.16;100.00
12775;BME280;6451;42.630;23.382;2023-12-20T00:47:58;94672.69;;;2.04;100.00
12775;BME280;6451;42.630;23.382;2023-12-20T00:50:27;94678.78;;;2.10;100.00
12775;BME280;6451;42.630;23.382;2023-12-20T00:52:53;94676.44;;;2.03;100.00
12775;BME280;6451;42.630;23.382;2023-12-20T00:55:21;94664.50;;;1.95;100.00
12775;BME280;6451;42.630;23.382;2023-12-20T00:57:48;94679.47;;;1.97;100.00
12775;BME280;6451;42.630;23.382;2023-12-20T01:00:16;94620.78;;;1.52;100.00
12775;BME280;6451;42.630;23.382;2023-12-20T01:02:42;94659.13;;;1.72;100.00
12775;BME280;6451;42.630;23.382;2023-12-20T01:05:09;94665.44;;;1.81;100.00
12775;BME280;6451;42.630;23.382;2023-12-20T01:07:40;94649.69;;;1.79;100.00
12775;BME280;6451;42.630;23.382;2023-12-20T01:10:07;94663.28;;;1.83;100.00
12775;BME280;6451;42.630;23.382;2023-12-20T01:12:36;94345.34;;;-0.15;100.00
12775;BME280;6451;42.630;23.382;2023-12-20T01:15:03;94651.91;;;1.96;100.00
12775;BME280;6451;42.630;23.382;2023-12-20T01:17:30;94653.16;;;2.04;100.00
12775;BME280;6451;42.630;23.382;2023-12-20T01:19:57;94582.25;;;1.53;100.00
12775;BME280;6451;42.630;23.382;2023-12-20T01:22:24;94651.41;;;1.94;100.00
12775;BME280;6451;42.630;23.382;2023-12-20T01:24:52;94649.34;;;1.86;100.00
12775;BME280;6451;42.630;23.382;2023-12-20T01:27:19;94635.81;;;2.01;100.00
12775;BME280;6451;42.630;23.382;2023-12-20T01:29:46;94628.31;;;1.98;100.00
12775;BME280;6451;42.630;23.382;2023-12-20T01:32:13;94631.91;;;1.88;100.00
12775;BME280;6451;42.630;23.382;2023-12-20T01:34:40;94626.56;;;1.64;100.00
12775;BME280;6451;42.630;23.382;2023-12-20T01:37:07;94625.75;;;1.64;100.00
12775;BME280;6451;42.630;23.382;2023-12-20T01:39:33;94628.63;;;1.73;100.00
12775;BME280;6451;42.630;23.382;2023-12-20T01:42:02;94625.81;;;1.83;100.00
12775;BME280;6451;42.630;23.382;2023-12-20T01:44:29;94626.56;;;1.88;100.00
12775;BME280;6451;42.630;23.382;2023-12-20T01:46:56;94613.44;;;1.92;100.00
12775;BME280;6451;42.630;23.382;2023-12-20T01:49:23;94585.31;;;1.71;100.00
12775;BME280;6451;42.630;23.382;2023-12-20T01:51:51;94606.16;;;1.68;100.00
12775;BME280;6451;42.630;23.382;2023-12-20T01:54:19;94600.81;;;1.68;100.00
12775;BME280;6451;42.630;23.382;2023-12-20T01:56:48;94599.16;;;1.78;100.00
12775;BME280;6451;42.630;23.382;2023-12-20T01:59:18;94602.03;;;1.81;100.00
12775;BME280;6451;42.630;23.382;2023-12-20T02:01:45;94596.97;;;1.80;100.00
12775;BME280;6451;42.630;23.382;2023-12-20T02:04:12;94581.50;;;1.77;100.00
12775;BME280;6451;42.630;23.382;2023-12-20T02:06:40;94595.50;;;1.92;100.00
12775;BME280;6451;42.630;23.382;2023-12-20T02:09:07;94592.63;;;1.84;100.00
12775;BME280;6451;42.630;23.382;2023-12-20T02:11:34;94582.97;;;1.88;100.00
12775;BME280;6451;42.630;23.382;2023-12-20T02:14:02;94582.47;;;1.86;100.00
12775;BME280;6451;42.630;23.382;2023-12-20T02:16:30;94563.00;;;1.80;100.00
12775;BME280;6451;42.630;23.382;2023-12-20T02:18:57;94539.38;;;1.63;100.00
12775;BME280;6451;42.630;23.382;2023-12-20T02:21:31;94580.28;;;1.88;100.00
12775;BME280;6451;42.630;23.382;2023-12-20T02:23:59;94579.34;;;1.79;100.00
12775;BME280;6451;42.630;23.382;2023-12-20T02:26:26;94574.03;;;1.74;100.00
12775;BME280;6451;42.630;23.382;2023-12-20T02:28:53;94560.47;;;1.65;100.00
12775;BME280;6451;42.630;23.382;2023-12-20T02:31:21;94567.22;;;1.62;100.00
12775;BME280;6451;42.630;23.382;2023-12-20T02:33:48;94552.34;;;1.51;100.00
12775;BME280;6451;42.630;23.382;2023-12-20T02:36:15;94563.13;;;1.70;100.00
12775;BME280;6451;42.630;23.382;2023-12-20T02:38:43;94550.53;;;1.71;100.00
12775;BME280;6451;42.630;23.382;2023-12-20T02:41:10;94551.88;;;1.68;100.00
12775;BME280;6451;42.630;23.382;2023-12-20T02:43:37;94558.78;;;1.74;100.00
12775;BME280;6451;42.630;23.382;2023-12-20T02:46:04;94552.97;;;1.67;100.00
12775;BME280;6451;42.630;23.382;2023-12-20T02:48:31;94547.78;;;1.76;100.00
12775;BME280;6451;42.630;23.382;2023-12-20T02:50:57;94548.66;;;1.71;100.00
12775;BME280;6451;42.630;23.382;2023-12-20T02:53:24;94528.53;;;1.55;100.00
12775;BME280;6451;42.630;23.382;2023-12-20T02:55:53;94548.03;;;1.55;100.00
12775;BME280;6451;42.630;23.382;2023-12-20T02:58:19;94552.06;;;1.53;100.00
12775;BME280;6451;42.630;23.382;2023-12-20T03:00:46;94486.41;;;0.89;100.00
12775;BME280;6451;42.630;23.382;2023-12-20T03:03:13;94511.75;;;1.20;100.00
12775;BME280;6451;42.630;23.382;2023-12-20T03:05:40;94555.25;;;1.55;100.00
12775;BME280;6451;42.630;23.382;2023-12-20T03:08:07;94548.38;;;1.49;100.00
12775;BME280;6451;42.630;23.382;2023-12-20T03:10:33;94557.66;;;1.27;100.00
12775;BME280;6451;42.630;23.382;2023-12-20T03:13:02;94485.16;;;0.81;100.00
12775;BME280;6451;42.630;23.382;2023-12-20T03:15:28;94510.09;;;1.00;100.00
12775;BME280;6451;42.630;23.382;2023-12-20T03:17:55;94508.06;;;0.87;100.00
12775;BME280;6451;42.630;23.382;2023-12-20T03:20:24;94523.59;;;0.85;100.00
12775;BME280;6451;42.630;23.382;2023-12-20T03:22:51;94549.50;;;1.14;100.00
12775;BME280;6451;42.630;23.382;2023-12-20T03:25:18;94547.38;;;1.16;100.00
12775;BME280;6451;42.630;23.382;2023-12-20T03:27:46;94538.41;;;1.01;100.00
12775;BME280;6451;42.630;23.382;2023-12-20T03:30:14;94502.09;;;0.66;100.00
12775;BME280;6451;42.630;23.382;2023-12-20T03:32:41;94520.59;;;0.58;100.00
12775;BME280;6451;42.630;23.382;2023-12-20T03:35:08;94541.94;;;0.63;100.00
12775;BME280;6451;42.630;23.382;2023-12-20T03:37:35;94506.91;;;0.30;100.00
12775;BME280;6451;42.630;23.382;2023-12-20T03:40:04;94512.91;;;0.12;100.00
12775;BME280;6451;42.630;23.382;2023-12-20T03:42:31;94531.81;;;0.15;100.00
12775;BME280;6451;42.630;23.382;2023-12-20T03:44:58;94532.06;;;0.19;100.00
12775;BME280;6451;42.630;23.382;2023-12-20T03:47:26;94537.50;;;0.04;100.00
12775;BME280;6451;42.630;23.382;2023-12-20T03:49:54;94534.84;;;0.04;100.00
12775;BME280;6451;42.630;23.382;2023-12-20T03:52:21;94531.88;;;0.05;100.00
12775;BME280;6451;42.630;23.382;2023-12-20T03:54:48;94527.34;;;0.06;100.00
12775;BME280;6451;42.630;23.382;2023-12-20T03:57:15;94527.75;;;0.28;100.00
12775;BME280;6451;42.630;23.382;2023-12-20T03:59:42;94477.44;;;0.11;100.00
12775;BME280;6451;42.630;23.382;2023-12-20T04:02:08;94514.00;;;0.45;100.00
12775;BME280;6451;42.630;23.382;2023-12-20T04:04:37;94521.47;;;0.48;100.00
12775;BME280;6451;42.630;23.382;2023-12-20T04:07:03;94498.00;;;0.45;100.00
12775;BME280;6451;42.630;23.382;2023-12-20T04:09:30;94494.22;;;0.51;100.00
12775;BME280;6451;42.630;23.382;2023-12-20T04:11:57;94511.16;;;0.70;100.00
12775;BME280;6451;42.630;23.382;2023-12-20T04:14:25;94503.97;;;0.66;100.00
12775;BME280;6451;42.630;23.382;2023-12-20T04:16:52;94458.53;;;0.42;100.00
12775;BME280;6451;42.630;23.382;2023-12-20T04:19:19;94490.53;;;0.76;100.00
12775;BME280;6451;42.630;23.382;2023-12-20T04:21:47;94477.38;;;0.55;100.00
12775;BME280;6451;42.630;23.382;2023-12-20T04:24:14;94497.50;;;0.77;100.00
12775;BME280;6451;42.630;23.382;2023-12-20T04:26:41;94473.59;;;0.62;100.00
12775;BME280;6451;42.630;23.382;2023-12-20T04:29:08;94468.94;;;0.72;100.00
12775;BME280;6451;42.630;23.382;2023-12-20T04:31:35;94487.47;;;0.93;100.00
12775;BME280;6451;42.630;23.382;2023-12-20T04:34:02;94488.19;;;0.98;100.00
12775;BME280;6451;42.630;23.382;2023-12-20T04:36:29;94483.19;;;0.92;100.00
12775;BME280;6451;42.630;23.382;2023-12-20T04:38:57;94479.72;;;0.91;100.00
12775;BME280;6451;42.630;23.382;2023-12-20T04:41:25;94471.97;;;0.90;100.00
12775;BME280;6451;42.630;23.382;2023-12-20T04:43:53;94473.56;;;0.91;100.00
12775;BME280;6451;42.630;23.382;2023-12-20T04:46:20;94463.53;;;1.06;100.00
12775;BME280;6451;42.630;23.382;2023-12-20T04:48:46;94456.28;;;0.83;100.00
12775;BME280;6451;42.630;23.382;2023-12-20T04:51:13;94441.44;;;0.72;100.00
12775;BME280;6451;42.630;23.382;2023-12-20T04:53:40;94452.50;;;0.89;100.00
12775;BME280;6451;42.630;23.382;2023-12-20T04:56:08;94473.78;;;0.70;100.00
12775;BME280;6451;42.630;23.382;2023-12-20T04:58:35;94471.16;;;0.94;100.00
12775;BME280;6451;42.630;23.382;2023-12-20T05:01:04;94475.06;;;0.05;100.00
12775;BME280;6451;42.630;23.382;2023-12-20T05:03:32;94471.31;;;0.06;100.00
12775;BME280;6451;42.630;23.382;2023-12-20T05:06:00;94480.31;;;-0.24;100.00
12775;BME280;6451;42.630;23.382;2023-12-20T05:08:27;94461.84;;;-0.16;100.00
12775;BME280;6451;42.630;23.382;2023-12-20T05:10:54;94468.75;;;-0.69;100.00
12775;BME280;6451;42.630;23.382;2023-12-20T05:13:23;94466.59;;;-0.57;100.00
12775;BME280;6451;42.630;23.382;2023-12-20T05:15:50;94460.47;;;-0.58;100.00
12775;BME280;6451;42.630;23.382;2023-12-20T05:18:19;94420.78;;;-0.64;100.00
12775;BME280;6451;42.630;23.382;2023-12-20T05:20:46;94447.97;;;-0.62;100.00
12775;BME280;6451;42.630;23.382;2023-12-20T05:23:13;94431.16;;;-0.63;100.00
12775;BME280;6451;42.630;23.382;2023-12-20T05:25:40;94455.56;;;-0.30;100.00
12775;BME280;6451;42.630;23.382;2023-12-20T05:28:07;94432.31;;;-0.74;100.00
12775;BME280;6451;42.630;23.382;2023-12-20T05:30:35;94432.81;;;-0.67;100.00
12775;BME280;6451;42.630;23.382;2023-12-20T05:33:02;94427.25;;;-0.75;100.00
12775;BME280;6451;42.630;23.382;2023-12-20T05:35:30;94444.81;;;-0.74;100.00
12775;BME280;6451;42.630;23.382;2023-12-20T05:37:57;94439.28;;;-0.93;100.00
12775;BME280;6451;42.630;23.382;2023-12-20T05:40:23;94439.72;;;-0.61;100.00
12775;BME280;6451;42.630;23.382;2023-12-20T05:42:50;94432.09;;;-0.33;100.00
12775;BME280;6451;42.630;23.382;2023-12-20T05:45:17;94421.81;;;-0.11;100.00
12775;BME280;6451;42.630;23.382;2023-12-20T05:47:45;94427.41;;;0.27;100.00
12775;BME280;6451;42.630;23.382;2023-12-20T05:50:13;94437.28;;;-0.08;100.00
12775;BME280;6451;42.630;23.382;2023-12-20T05:52:40;94438.00;;;-0.36;100.00
12775;BME280;6451;42.630;23.382;2023-12-20T05:55:07;94407.16;;;-0.52;100.00
12775;BME280;6451;42.630;23.382;2023-12-20T05:57:34;94418.72;;;-0.77;100.00
12775;BME280;6451;42.630;23.382;2023-12-20T06:00:01;94388.72;;;-1.03;100.00
12775;BME280;6451;42.630;23.382;2023-12-20T06:02:29;94428.72;;;-0.54;100.00
12775;BME280;6451;42.630;23.382;2023-12-20T06:04:57;94421.94;;;-0.80;100.00
12775;BME280;6451;42.630;23.382;2023-12-20T06:07:27;94399.56;;;-0.85;100.00
12775;BME280;6451;42.630;23.382;2023-12-20T06:09:55;94385.34;;;-1.19;100.00
12775;BME280;6451;42.630;23.382;2023-12-20T06:12:21;94368.06;;;-1.27;100.00
12775;BME280;6451;42.630;23.382;2023-12-20T06:14:48;94414.47;;;-0.78;100.00
12775;BME280;6451;42.630;23.382;2023-12-20T06:17:15;94422.72;;;-0.80;100.00
12775;BME280;6451;42.630;23.382;2023-12-20T06:19:42;94425.34;;;-0.70;100.00
12775;BME280;6451;42.630;23.382;2023-12-20T06:22:11;94431.75;;;-0.71;100.00
12775;BME280;6451;42.630;23.382;2023-12-20T06:24:40;94401.66;;;-0.71;100.00
12775;BME280;6451;42.630;23.382;2023-12-20T06:27:07;94433.69;;;-0.32;100.00
12775;BME280;6451;42.630;23.382;2023-12-20T06:29:34;94429.78;;;-0.45;100.00
12775;BME280;6451;42.630;23.382;2023-12-20T06:32:01;94342.16;;;-1.06;100.00
12775;BME280;6451;42.630;23.382;2023-12-20T06:34:28;94424.47;;;-0.50;100.00
12775;BME280;6451;42.630;23.382;2023-12-20T06:36:55;94424.59;;;-0.31;100.00
12775;BME280;6451;42.630;23.382;2023-12-20T06:39:23;94382.63;;;-0.49;100.00
12775;BME280;6451;42.630;23.382;2023-12-20T06:41:50;94410.63;;;-0.52;100.00
12775;BME280;6451;42.630;23.382;2023-12-20T06:44:17;94404.91;;;-0.30;100.00
12775;BME280;6451;42.630;23.382;2023-12-20T06:46:44;94407.91;;;0.32;100.00
12775;BME280;6451;42.630;23.382;2023-12-20T06:49:11;94415.78;;;0.47;100.00
12775;BME280;6451;42.630;23.382;2023-12-20T06:51:38;94402.28;;;0.62;100.00
12775;BME280;6451;42.630;23.382;2023-12-20T06:54:05;94385.56;;;0.51;100.00
12775;BME280;6451;42.630;23.382;2023-12-20T06:56:33;94407.81;;;0.71;100.00
12775;BME280;6451;42.630;23.382;2023-12-20T06:59:00;94393.56;;;0.51;100.00
12775;BME280;6451;42.630;23.382;2023-12-20T07:01:27;94409.63;;;0.75;100.00
12775;BME280;6451;42.630;23.382;2023-12-20T07:03:54;94373.66;;;0.92;100.00
12775;BME280;6451;42.630;23.382;2023-12-20T07:06:21;94398.50;;;1.16;100.00
12775;BME280;6451;42.630;23.382;2023-12-20T07:08:48;94375.63;;;1.29;100.00
12775;BME280;6451;42.630;23.382;2023-12-20T07:11:15;94387.78;;;1.40;100.00
12775;BME280;6451;42.630;23.382;2023-12-20T07:13:43;94392.75;;;1.04;100.00
12775;BME280;6451;42.630;23.382;2023-12-20T07:16:10;94381.63;;;0.97;100.00
12775;BME280;6451;42.630;23.382;2023-12-20T07:18:38;94391.25;;;1.41;100.00
12775;BME280;6451;42.630;23.382;2023-12-20T07:21:05;94393.97;;;0.93;100.00
12775;BME280;6451;42.630;23.382;2023-12-20T07:23:33;94380.53;;;0.98;100.00
12775;BME280;6451;42.630;23.382;2023-12-20T07:26:00;94370.03;;;0.82;100.00
12775;BME280;6451;42.630;23.382;2023-12-20T07:28:27;94379.34;;;1.09;100.00
12775;BME280;6451;42.630;23.382;2023-12-20T07:30:55;94348.81;;;0.67;100.00
12775;BME280;6451;42.630;23.382;2023-12-20T07:33:22;94389.97;;;0.66;100.00
12775;BME280;6451;42.630;23.382;2023-12-20T07:35:49;94304.53;;;0.13;100.00
12775;BME280;6451;42.630;23.382;2023-12-20T07:38:17;94349.78;;;0.52;100.00
12775;BME280;6451;42.630;23.382;2023-12-20T07:40:45;94387.63;;;0.83;100.00
12775;BME280;6451;42.630;23.382;2023-12-20T07:43:12;94394.00;;;0.64;100.00
12775;BME280;6451;42.630;23.382;2023-12-20T07:45:38;94376.28;;;0.73;100.00
12775;BME280;6451;42.630;23.382;2023-12-20T07:48:07;94376.22;;;0.54;100.00
12775;BME280;6451;42.630;23.382;2023-12-20T07:50:34;94360.00;;;0.45;100.00
12775;BME280;6451;42.630;23.382;2023-12-20T07:53:02;94349.38;;;0.40;100.00
12775;BME280;6451;42.630;23.382;2023-12-20T07:55:29;94347.16;;;0.23;100.00
12775;BME280;6451;42.630;23.382;2023-12-20T07:57:57;94380.06;;;0.67;100.00
12775;BME280;6451;42.630;23.382;2023-12-20T08:00:27;94378.41;;;1.00;100.00
12775;BME280;6451;42.630;23.382;2023-12-20T08:02:54;94352.56;;;0.90;100.00
12775;BME280;6451;42.630;23.382;2023-12-20T08:05:22;94347.97;;;0.96;100.00
12775;BME280;6451;42.630;23.382;2023-12-20T08:07:49;94355.97;;;1.20;100.00
12775;BME280;6451;42.630;23.382;2023-12-20T08:10:16;94320.03;;;1.07;100.00
12775;BME280;6451;42.630;23.382;2023-12-20T08:12:44;94363.13;;;1.24;100.00
12775;BME280;6451;42.630;23.382;2023-12-20T08:15:12;94350.31;;;1.02;100.00
12775;BME280;6451;42.630;23.382;2023-12-20T08:17:40;94345.34;;;1.15;100.00
12775;BME280;6451;42.630;23.382;2023-12-20T08:20:07;94342.22;;;0.83;100.00
12775;BME280;6451;42.630;23.382;2023-12-20T08:22:37;94346.69;;;1.55;100.00
12775;BME280;6451;42.630;23.382;2023-12-20T08:25:04;94346.22;;;1.29;100.00
12775;BME280;6451;42.630;23.382;2023-12-20T08:27:31;94349.78;;;1.24;100.00
12775;BME280;6451;42.630;23.382;2023-12-20T08:29:59;94343.81;;;1.08;100.00
12775;BME280;6451;42.630;23.382;2023-12-20T08:32:26;94338.06;;;1.20;100.00
12775;BME280;6451;42.630;23.382;2023-12-20T08:34:53;94329.28;;;0.72;100.00
12775;BME280;6451;42.630;23.382;2023-12-20T08:37:20;94313.53;;;0.94;100.00
12775;BME280;6451;42.630;23.382;2023-12-20T08:39:48;94293.25;;;1.12;100.00
12775;BME280;6451;42.630;23.382;2023-12-20T08:42:15;94316.59;;;1.82;100.00
12775;BME280;6451;42.630;23.382;2023-12-20T08:44:42;94297.91;;;1.44;100.00
12775;BME280;6451;42.630;23.382;2023-12-20T08:47:09;94309.25;;;1.36;100.00
12775;BME280;6451;42.630;23.382;2023-12-20T08:49:38;94306.41;;;1.27;100.00
12775;BME280;6451;42.630;23.382;2023-12-20T08:52:05;94305.56;;;1.32;100.00
12775;BME280;6451;42.630;23.382;2023-12-20T08:54:32;94310.25;;;1.59;100.00
12775;BME280;6451;42.630;23.382;2023-12-20T08:57:00;94292.53;;;1.06;100.00
12775;BME280;6451;42.630;23.382;2023-12-20T08:59:27;94307.50;;;1.45;100.00
12775;BME280;6451;42.630;23.382;2023-12-20T09:01:54;94296.38;;;1.19;100.00
12775;BME280;6451;42.630;23.382;2023-12-20T09:04:21;94249.03;;;1.57;100.00
12775;BME280;6451;42.630;23.382;2023-12-20T09:06:48;94296.53;;;1.47;100.00
12775;BME280;6451;42.630;23.382;2023-12-20T09:09:15;94256.88;;;1.54;100.00
12775;BME280;6451;42.630;23.382;2023-12-20T09:11:42;94266.75;;;1.53;100.00
12775;BME280;6451;42.630;23.382;2023-12-20T09:14:13;94263.56;;;1.84;100.00
12775;BME280;6451;42.630;23.382;2023-12-20T09:16:39;94248.28;;;2.03;100.00
12775;BME280;6451;42.630;23.382;2023-12-20T09:19:06;94239.13;;;1.90;100.00
12775;BME280;6451;42.630;23.382;2023-12-20T09:21:35;94261.31;;;1.91;100.00
12775;BME280;6451;42.630;23.382;2023-12-20T09:24:02;94221.31;;;2.13;100.00
12775;BME280;6451;42.630;23.382;2023-12-20T09:26:29;94204.75;;;1.98;100.00
12775;BME280;6451;42.630;23.382;2023-12-20T09:28:57;94239.22;;;2.32;100.00
12775;BME280;6451;42.630;23.382;2023-12-20T09:31:26;94219.69;;;2.31;100.00
12775;BME280;6451;42.630;23.382;2023-12-20T09:33:52;94220.97;;;2.47;100.00
12775;BME280;6451;42.630;23.382;2023-12-20T09:36:19;94209.84;;;2.54;100.00
12775;BME280;6451;42.630;23.382;2023-12-20T09:38:47;94208.94;;;2.59;100.00
12775;BME280;6451;42.630;23.382;2023-12-20T09:41:14;94207.56;;;2.61;100.00
12775;BME280;6451;42.630;23.382;2023-12-20T09:43:41;94208.84;;;2.36;100.00
12775;BME280;6451;42.630;23.382;2023-12-20T09:46:12;94201.72;;;2.32;100.00
12775;BME280;6451;42.630;23.382;2023-12-20T09:48:44;94192.38;;;2.29;100.00
12775;BME280;6451;42.630;23.382;2023-12-20T09:51:11;94186.72;;;2.72;100.00
12775;BME280;6451;42.630;23.382;2023-12-20T09:53:40;94187.19;;;2.88;100.00
12775;BME280;6451;42.630;23.382;2023-12-20T09:56:07;94184.38;;;3.51;100.00
12775;BME280;6451;42.630;23.382;2023-12-20T09:58:36;94190.75;;;3.86;100.00
12775;BME280;6451;42.630;23.382;2023-12-20T10:01:05;94161.47;;;3.45;100.00
12775;BME280;6451;42.630;23.382;2023-12-20T10:03:34;94162.34;;;3.85;100.00
12775;BME280;6451;42.630;23.382;2023-12-20T10:06:03;94147.06;;;3.95;100.00
12775;BME280;6451;42.630;23.382;2023-12-20T10:08:30;94156.31;;;3.80;100.00
12775;BME280;6451;42.630;23.382;2023-12-20T10:10:58;94157.53;;;4.05;100.00
12775;BME280;6451;42.630;23.382;2023-12-20T10:13:28;94141.06;;;4.37;100.00
12775;BME280;6451;42.630;23.382;2023-12-20T10:15:55;94144.53;;;3.98;100.00
12775;BME280;6451;42.630;23.382;2023-12-20T10:18:23;94122.25;;;3.58;100.00
12775;BME280;6451;42.630;23.382;2023-12-20T10:20:50;94144.38;;;3.95;100.00
12775;BME280;6451;42.630;23.382;2023-12-20T10:23:18;94148.22;;;3.49;100.00
12775;BME280;6451;42.630;23.382;2023-12-20T10:25:55;94137.50;;;3.80;100.00
12775;BME280;6451;42.630;23.382;2023-12-20T10:28:24;94132.06;;;3.94;100.00
12775;BME280;6451;42.630;23.382;2023-12-20T10:30:53;94119.56;;;3.58;100.00
12775;BME280;6451;42.630;23.382;2023-12-20T10:33:24;94131.72;;;3.55;100.00
12775;BME280;6451;42.630;23.382;2023-12-20T10:35:52;94111.31;;;3.23;100.00
12775;BME280;6451;42.630;23.382;2023-12-20T10:38:21;94133.72;;;3.50;100.00
12775;BME280;6451;42.630;23.382;2023-12-20T10:40:52;94112.84;;;3.69;100.00
12775;BME280;6451;42.630;23.382;2023-12-20T10:43:22;94001.66;;;2.91;100.00
12775;BME280;6451;42.630;23.382;2023-12-20T10:45:51;94088.53;;;3.12;100.00
12775;BME280;6451;42.630;23.382;2023-12-20T10:48:19;94083.84;;;2.95;100.00
12775;BME280;6451;42.630;23.382;2023-12-20T10:50:47;94087.34;;;3.49;100.00
12775;BME280;6451;42.630;23.382;2023-12-20T10:53:14;94088.69;;;3.38;100.00
12775;BME280;6451;42.630;23.382;2023-12-20T10:55:44;94066.84;;;3.22;100.00
12775;BME280;6451;42.630;23.382;2023-12-20T10:58:12;94087.25;;;3.63;100.00
12775;BME280;6451;42.630;23.382;2023-12-20T11:00:40;94064.50;;;3.29;100.00
12775;BME280;6451;42.630;23.382;2023-12-20T11:03:09;94065.78;;;3.32;100.00
12775;BME280;6451;42.630;23.382;2023-12-20T11:05:43;94068.38;;;3.15;100.00
12775;BME280;6451;42.630;23.382;2023-12-20T11:08:17;94059.28;;;3.02;100.00
12775;BME280;6451;42.630;23.382;2023-12-20T11:10:56;94061.22;;;3.32;100.00
12775;BME280;6451;42.630;23.382;2023-12-20T11:13:30;94037.03;;;3.24;100.00
12775;BME280;6451;42.630;23.382;2023-12-20T11:16:00;94041.63;;;3.23;100.00
12775;BME280;6451;42.630;23.382;2023-12-20T11:18:30;94052.44;;;3.18;100.00
12775;BME280;6451;42.630;23.382;2023-12-20T11:21:00;94044.06;;;3.11;100.00
12775;BME280;6451;42.630;23.382;2023-12-20T11:23:29;94025.72;;;3.35;100.00
12775;BME280;6451;42.630;23.382;2023-12-20T11:25:58;94032.91;;;3.18;100.00
12775;BME280;6451;42.630;23.382;2023-12-20T11:28:26;94011.25;;;3.14;100.00
12775;BME280;6451;42.630;23.382;2023-12-20T11:30:56;93824.63;;;2.39;100.00
12775;BME280;6451;42.630;23.382;2023-12-20T11:33:26;94011.16;;;3.59;100.00
12775;BME280;6451;42.630;23.382;2023-12-20T11:35:55;94013.50;;;3.52;100.00
12775;BME280;6451;42.630;23.382;2023-12-20T11:38:23;93999.84;;;3.00;100.00
12775;BME280;6451;42.630;23.382;2023-12-20T11:40:51;93990.66;;;2.92;100.00
12775;BME280;6451;42.630;23.382;2023-12-20T11:43:35;93985.00;;;2.94;100.00
12775;BME280;6451;42.630;23.382;2023-12-20T11:46:05;93990.25;;;2.76;100.00
12775;BME280;6451;42.630;23.382;2023-12-20T11:48:36;93956.97;;;3.00;100.00
12775;BME280;6451;42.630;23.382;2023-12-20T11:51:09;93986.63;;;3.03;100.00
12775;BME280;6451;42.630;23.382;2023-12-20T11:53:37;93967.03;;;3.25;100.00
12775;BME280;6451;42.630;23.382;2023-12-20T11:56:04;93943.94;;;3.55;100.00
12775;BME280;6451;42.630;23.382;2023-12-20T11:58:34;93958.91;;;3.48;100.00
12775;BME280;6451;42.630;23.382;2023-12-20T12:01:01;93921.22;;;3.53;100.00
12775;BME280;6451;42.630;23.382;2023-12-20T12:03:30;93952.34;;;3.80;100.00
12775;BME280;6451;42.630;23.382;2023-12-20T12:05:57;93947.66;;;3.85;100.00
12775;BME280;6451;42.630;23.382;2023-12-20T12:08:24;93947.66;;;4.03;100.00
12775;BME280;6451;42.630;23.382;2023-12-20T12:10:51;93913.69;;;3.72;100.00
12775;BME280;6451;42.630;23.382;2023-12-20T12:13:18;93923.63;;;3.98;100.00
12775;BME280;6451;42.630;23.382;2023-12-20T12:15:46;93927.44;;;4.14;100.00
12775;BME280;6451;42.630;23.382;2023-12-20T12:18:15;93872.63;;;3.72;100.00
12775;BME280;6451;42.630;23.382;2023-12-20T12:20:43;93872.63;;;3.72;100.00
12775;BME280;6451;42.630;23.382;2023-12-20T12:23:09;93914.19;;;3.92;100.00
12775;BME280;6451;42.630;23.382;2023-12-20T12:25:36;93914.66;;;3.94;100.00
12775;BME280;6451;42.630;23.382;2023-12-20T12:28:04;93907.06;;;4.22;100.00
12775;BME280;6451;42.630;23.382;2023-12-20T12:30:32;93908.66;;;4.23;100.00
12775;BME280;6451;42.630;23.382;2023-12-20T12:33:00;93877.53;;;4.39;100.00
12775;BME280;6451;42.630;23.382;2023-12-20T12:35:27;93904.81;;;4.76;100.00
12775;BME280;6451;42.630;23.382;2023-12-20T12:37:54;93893.28;;;4.58;100.00
12775;BME280;6451;42.630;23.382;2023-12-20T12:40:21;93883.00;;;4.60;100.00
12775;BME280;6451;42.630;23.382;2023-12-20T12:42:49;93885.78;;;4.89;100.00
12775;BME280;6451;42.630;23.382;2023-12-20T12:45:16;93865.81;;;4.43;100.00
12775;BME280;6451;42.630;23.382;2023-12-20T12:47:45;93855.44;;;4.16;100.00
12775;BME280;6451;42.630;23.382;2023-12-20T12:50:13;93853.06;;;4.32;100.00
12775;BME280;6451;42.630;23.382;2023-12-20T12:52:40;93858.56;;;4.35;100.00
12775;BME280;6451;42.630;23.382;2023-12-20T12:55:07;93881.00;;;4.39;100.00
12775;BME280;6451;42.630;23.382;2023-12-20T12:57:34;93837.59;;;4.11;100.00
12775;BME280;6451;42.630;23.382;2023-12-20T13:00:01;93895.19;;;4.57;100.00
12775;BME280;6451;42.630;23.382;2023-12-20T13:02:30;93875.66;;;4.31;100.00